createdAt,value
2017-07-26T00:02:10.241Z,5.43
2017-07-26T00:04:38.650Z,5.90
2017-07-26T00:07:07.079Z,5.50
2017-07-26T00:09:35.583Z,5.53
2017-07-26T00:12:04.020Z,5.77
2017-07-26T00:14:33.135Z,4.53
2017-07-26T00:17:02.331Z,5.97
2017-07-26T00:19:31.550Z,5.50
2017-07-26T00:21:59.980Z,3.93
2017-07-26T00:24:28.441Z,3.93
2017-07-26T00:26:56.837Z,4.30
2017-07-26T00:29:25.274Z,4.27
2017-07-26T00:31:53.771Z,4.63
2017-07-26T00:34:22.209Z,4.20
2017-07-26T00:36:51.417Z,3.73
2017-07-26T00:39:20.594Z,4.00
2017-07-26T00:41:49.025Z,3.67
2017-07-26T00:44:17.442Z,3.13
2017-07-26T00:46:45.855Z,3.30
2017-07-26T00:49:15.073Z,3.40
2017-07-26T00:51:43.639Z,2.70
2017-07-26T00:54:12.822Z,3.47
2017-07-26T00:56:41.364Z,2.70
2017-07-26T00:59:09.786Z,3.20
2017-07-26T01:01:38.900Z,3.00
2017-07-26T01:04:08.102Z,3.10
2017-07-26T01:06:37.282Z,3.63
2017-07-26T01:09:05.476Z,3.80
2017-07-26T01:11:34.785Z,3.27
2017-07-26T01:14:03.227Z,3.13
2017-07-26T01:16:31.662Z,2.77
2017-07-26T01:19:00.146Z,3.30
2017-07-26T01:21:28.574Z,2.93
2017-07-26T01:23:56.987Z,3.10
2017-07-26T01:26:26.208Z,2.70
2017-07-26T01:28:54.634Z,3.17
2017-07-26T01:31:23.050Z,3.50
2017-07-26T01:33:52.374Z,3.53
2017-07-26T01:36:21.514Z,2.87
2017-07-26T01:38:50.138Z,2.03
2017-07-26T01:41:18.816Z,2.10
2017-07-26T01:43:47.991Z,2.67
2017-07-26T01:46:17.187Z,2.07
2017-07-26T01:48:45.606Z,1.77
2017-07-26T01:51:14.051Z,2.37
2017-07-26T01:53:42.470Z,1.87
2017-07-26T01:56:10.543Z,2.20
2017-07-26T01:58:38.981Z,1.67
2017-07-26T02:01:07.515Z,2.23
2017-07-26T02:03:35.943Z,2.07
2017-07-26T02:06:04.447Z,1.70
2017-07-26T02:08:33.569Z,2.50
2017-07-26T02:11:02.188Z,1.87
2017-07-26T02:13:30.627Z,1.53
2017-07-26T02:15:59.843Z,2.23
2017-07-26T02:18:28.272Z,2.10
2017-07-26T02:20:56.702Z,2.30
2017-07-26T02:23:25.123Z,2.43
2017-07-26T02:25:53.554Z,2.60
2017-07-26T02:28:22.734Z,2.77
2017-07-26T02:30:51.254Z,2.70
2017-07-26T02:33:19.693Z,3.20
2017-07-26T02:35:48.111Z,3.50
2017-07-26T02:38:16.544Z,3.30
2017-07-26T02:40:45.744Z,3.43
2017-07-26T02:43:14.238Z,3.27
2017-07-26T02:45:43.424Z,4.30
2017-07-26T02:48:11.883Z,2.90
2017-07-26T02:50:40.427Z,3.70
2017-07-26T02:53:09.614Z,3.30
2017-07-26T02:55:38.814Z,2.80
2017-07-26T02:58:08.007Z,3.13
2017-07-26T03:00:36.463Z,2.53
2017-07-26T03:03:04.891Z,2.67
2017-07-26T03:05:34.071Z,3.07
2017-07-26T03:08:03.271Z,3.50
2017-07-26T03:10:31.755Z,2.67
2017-07-26T03:13:00.958Z,3.73
2017-07-26T03:15:30.270Z,4.27
2017-07-26T03:17:59.445Z,4.50
2017-07-26T03:20:27.888Z,4.53
2017-07-26T03:22:56.318Z,4.90
2017-07-26T03:25:25.520Z,4.90
2017-07-26T03:27:54.705Z,6.10
2017-07-26T03:30:23.143Z,6.00
2017-07-26T03:32:51.952Z,6.63
2017-07-26T03:35:20.482Z,7.10
2017-07-26T03:37:49.682Z,6.70
2017-07-26T03:40:18.906Z,7.07
2017-07-26T03:42:47.163Z,6.80
2017-07-26T03:45:16.342Z,7.50
2017-07-26T03:47:44.772Z,7.03
2017-07-26T03:50:13.391Z,6.80
2017-07-26T03:52:41.814Z,6.60
2017-07-26T03:55:10.282Z,5.90
2017-07-26T03:57:39.471Z,6.37
2017-07-26T04:00:07.883Z,6.50
2017-07-26T04:02:36.318Z,7.17
2017-07-26T04:05:04.734Z,7.50
2017-07-26T04:07:33.171Z,8.03
2017-07-26T04:10:02.369Z,7.43
2017-07-26T04:12:31.490Z,10.10
2017-07-26T04:14:59.915Z,9.47
2017-07-26T04:17:28.334Z,9.93
2017-07-26T04:19:56.773Z,10.40
2017-07-26T04:22:25.211Z,9.23
2017-07-26T04:24:54.342Z,10.57
2017-07-26T04:27:22.770Z,10.77
2017-07-26T04:29:51.230Z,11.10
2017-07-26T04:32:20.360Z,12.63
2017-07-26T04:34:49.482Z,12.43
2017-07-26T04:37:18.702Z,11.77
2017-07-26T04:39:47.140Z,11.30
2017-07-26T04:42:15.580Z,11.37
2017-07-26T04:44:44.003Z,11.83
2017-07-26T04:47:12.451Z,10.73
2017-07-26T04:49:40.879Z,11.30
2017-07-26T04:52:09.313Z,11.13
2017-07-26T04:54:38.459Z,9.23
2017-07-26T04:57:06.968Z,10.30
2017-07-26T04:59:35.430Z,9.90
2017-07-26T05:02:05.376Z,11.53
2017-07-26T05:04:33.799Z,11.90
2017-07-26T05:07:02.972Z,11.20
2017-07-26T05:09:31.402Z,10.30
2017-07-26T05:11:59.861Z,9.70
2017-07-26T05:14:28.976Z,10.73
2017-07-26T05:16:57.397Z,12.90
2017-07-26T05:19:25.923Z,12.13
2017-07-26T05:21:54.460Z,12.00
2017-07-26T05:24:22.922Z,12.40
2017-07-26T05:26:52.119Z,12.57
2017-07-26T05:29:21.362Z,10.80
2017-07-26T05:31:49.783Z,13.30
2017-07-26T05:34:18.221Z,13.73
2017-07-26T05:36:46.675Z,14.20
2017-07-26T05:39:15.858Z,13.77
2017-07-26T05:41:45.063Z,13.07
2017-07-26T05:44:14.285Z,14.60
2017-07-26T05:46:42.724Z,12.80
2017-07-26T05:49:11.150Z,13.40
2017-07-26T05:51:41.034Z,14.97
2017-07-26T05:54:10.270Z,15.00
2017-07-26T05:56:38.703Z,14.17
2017-07-26T05:59:07.222Z,14.37
2017-07-26T06:01:35.646Z,15.27
2017-07-26T06:04:04.108Z,16.67
2017-07-26T06:06:32.567Z,14.33
2017-07-26T06:09:00.986Z,13.87
2017-07-26T06:11:29.443Z,14.90
2017-07-26T06:13:57.871Z,14.10
2017-07-26T06:16:26.333Z,14.40
2017-07-26T06:18:55.467Z,14.30
2017-07-26T06:21:24.688Z,14.10
2017-07-26T06:23:53.126Z,13.97
2017-07-26T06:26:21.554Z,15.90
2017-07-26T06:28:50.015Z,15.70
2017-07-26T06:31:18.867Z,16.10
2017-07-26T06:33:47.309Z,13.60
2017-07-26T06:36:15.983Z,14.70
2017-07-26T06:38:45.198Z,15.70
2017-07-26T06:41:14.398Z,14.43
2017-07-26T06:43:42.978Z,14.47
2017-07-26T06:46:11.438Z,13.47
2017-07-26T06:48:39.857Z,14.20
2017-07-26T06:51:09.759Z,15.33
2017-07-26T06:53:38.219Z,14.97
2017-07-26T06:56:07.420Z,14.23
2017-07-26T06:58:37.662Z,14.80
2017-07-26T07:01:06.855Z,13.40
2017-07-26T07:03:36.155Z,14.57
2017-07-26T07:06:05.354Z,12.50
2017-07-26T07:08:34.566Z,13.73
2017-07-26T07:11:03.016Z,15.10
2017-07-26T07:13:31.463Z,16.00
2017-07-26T07:15:59.894Z,14.03
2017-07-26T07:18:29.125Z,13.77
2017-07-26T07:20:57.562Z,13.20
2017-07-26T07:23:25.999Z,11.00
2017-07-26T07:25:54.430Z,13.20
2017-07-26T07:28:23.634Z,14.20
2017-07-26T07:30:52.825Z,15.37
2017-07-26T07:33:22.025Z,14.40
2017-07-26T07:35:51.230Z,12.37
2017-07-26T07:38:20.448Z,9.50
2017-07-26T07:40:48.890Z,8.73
2017-07-26T07:43:17.310Z,8.37
2017-07-26T07:45:45.768Z,9.20
2017-07-26T07:48:14.323Z,9.97
2017-07-26T07:50:42.738Z,9.50
2017-07-26T07:53:11.182Z,11.17
2017-07-26T07:55:39.603Z,11.17
2017-07-26T07:58:08.036Z,11.07
2017-07-26T08:00:36.476Z,12.93
2017-07-26T08:03:04.911Z,11.07
2017-07-26T08:05:33.349Z,10.67
2017-07-26T08:08:01.791Z,12.13
2017-07-26T08:10:30.226Z,13.40
2017-07-26T08:12:58.724Z,13.10
2017-07-26T08:15:27.148Z,12.50
2017-07-26T08:17:55.590Z,13.27
2017-07-26T08:20:24.019Z,13.23
2017-07-26T08:22:52.471Z,13.40
2017-07-26T08:25:20.906Z,13.00
2017-07-26T08:27:49.339Z,13.23
2017-07-26T08:30:17.796Z,13.13
2017-07-26T08:32:46.295Z,13.07
2017-07-26T08:35:14.754Z,14.80
2017-07-26T08:37:43.182Z,14.13
2017-07-26T08:40:11.622Z,15.50
2017-07-26T08:42:40.071Z,12.93
2017-07-26T08:45:08.523Z,15.03
2017-07-26T08:47:37.143Z,15.37
2017-07-26T08:50:05.572Z,13.93
2017-07-26T08:52:34.010Z,13.50
2017-07-26T08:55:02.484Z,13.50
2017-07-26T08:57:31.000Z,11.13
2017-07-26T08:59:59.430Z,12.30
2017-07-26T09:02:28.655Z,11.53
2017-07-26T09:04:57.151Z,11.00
2017-07-26T09:07:25.579Z,12.37
2017-07-26T09:09:54.021Z,11.93
2017-07-26T09:12:23.375Z,13.97
2017-07-26T09:14:52.576Z,14.30
2017-07-26T09:17:21.691Z,13.93
2017-07-26T09:19:50.135Z,12.67
2017-07-26T09:22:18.598Z,12.17
2017-07-26T09:24:47.030Z,10.10
2017-07-26T09:27:15.477Z,9.83
2017-07-26T09:29:43.904Z,11.63
2017-07-26T09:32:12.380Z,12.47
2017-07-26T09:34:40.925Z,11.90
2017-07-26T09:37:09.375Z,11.70
2017-07-26T09:39:37.830Z,10.60
2017-07-26T09:42:06.420Z,9.80
2017-07-26T09:44:34.858Z,11.37
2017-07-26T09:47:03.318Z,9.13
2017-07-26T09:49:31.734Z,11.00
2017-07-26T09:52:01.083Z,8.93
2017-07-26T09:54:29.527Z,9.20
2017-07-26T09:56:57.958Z,9.90
2017-07-26T09:59:26.389Z,8.00
2017-07-26T10:01:55.654Z,10.20
2017-07-26T10:04:24.112Z,10.70
2017-07-26T10:06:52.552Z,11.13
2017-07-26T10:09:21.712Z,9.87
2017-07-26T10:11:50.156Z,10.00
2017-07-26T10:14:18.590Z,10.77
2017-07-26T10:16:47.023Z,12.07
2017-07-26T10:19:15.446Z,11.23
2017-07-26T10:21:43.900Z,10.80
2017-07-26T10:24:12.342Z,9.10
2017-07-26T10:26:41.555Z,12.03
2017-07-26T10:29:09.983Z,10.47
2017-07-26T10:31:38.455Z,11.00
2017-07-26T10:34:07.096Z,10.10
2017-07-26T10:36:36.209Z,9.90
2017-07-26T10:39:03.784Z,9.13
2017-07-26T10:41:32.206Z,10.37
2017-07-26T10:44:00.672Z,9.07
2017-07-26T10:46:29.215Z,9.07
2017-07-26T10:48:57.663Z,10.20
2017-07-26T10:51:26.201Z,8.23
2017-07-26T10:53:54.638Z,9.50
2017-07-26T10:56:23.142Z,9.13
2017-07-26T10:58:51.578Z,9.87
2017-07-26T11:01:20.011Z,8.77
2017-07-26T11:03:48.454Z,8.87
2017-07-26T11:06:16.898Z,9.40
2017-07-26T11:08:45.451Z,8.13
2017-07-26T11:11:14.995Z,9.10
2017-07-26T11:13:43.439Z,10.10
2017-07-26T11:16:11.889Z,8.97
2017-07-26T11:18:41.002Z,7.90
2017-07-26T11:21:10.196Z,8.70
2017-07-26T11:23:39.411Z,8.47
2017-07-26T11:26:07.840Z,8.63
2017-07-26T11:28:36.258Z,7.67
2017-07-26T11:31:05.510Z,7.57
2017-07-26T11:33:34.163Z,7.77
2017-07-26T11:36:02.612Z,7.50
2017-07-26T11:38:31.731Z,8.30
2017-07-26T11:41:01.098Z,8.93
2017-07-26T11:43:29.556Z,7.60
2017-07-26T11:45:57.986Z,9.10
2017-07-26T11:48:26.480Z,8.80
2017-07-26T11:50:55.663Z,9.40
2017-07-26T11:53:24.082Z,8.00
2017-07-26T11:55:52.550Z,8.20
2017-07-26T11:58:21.736Z,9.10
2017-07-26T12:00:50.935Z,8.70
2017-07-26T12:03:20.127Z,9.67
2017-07-26T12:05:49.326Z,7.70
2017-07-26T12:08:17.760Z,7.20
2017-07-26T12:10:46.209Z,7.77
2017-07-26T12:13:15.422Z,8.40
2017-07-26T12:15:43.852Z,7.57
2017-07-26T12:18:12.307Z,8.00
2017-07-26T12:20:40.746Z,7.30
2017-07-26T12:23:09.946Z,7.87
2017-07-26T12:25:39.170Z,6.97
2017-07-26T12:28:07.602Z,6.53
2017-07-26T12:30:36.045Z,7.33
2017-07-26T12:33:04.491Z,8.87
2017-07-26T12:35:33.675Z,7.80
2017-07-26T12:38:02.888Z,8.40
2017-07-26T12:40:32.091Z,8.60
2017-07-26T12:43:01.294Z,8.00
2017-07-26T12:45:30.602Z,7.77
2017-07-26T12:47:59.028Z,7.80
2017-07-26T12:50:27.463Z,6.47
2017-07-26T12:52:55.890Z,6.57
2017-07-26T12:55:24.318Z,6.37
2017-07-26T12:57:52.750Z,6.60
2017-07-26T13:00:21.201Z,6.57
2017-07-26T13:02:49.639Z,6.93
2017-07-26T13:05:18.767Z,7.50
2017-07-26T13:07:47.969Z,7.30
2017-07-26T13:10:16.392Z,7.43
2017-07-26T13:12:44.828Z,8.20
2017-07-26T13:15:13.284Z,9.67
2017-07-26T13:17:42.421Z,8.07
2017-07-26T13:20:10.859Z,9.20
2017-07-26T13:22:39.284Z,8.93
2017-07-26T13:25:07.723Z,7.70
2017-07-26T13:27:36.219Z,7.00
2017-07-26T13:30:04.295Z,7.80
2017-07-26T13:32:32.730Z,7.33
2017-07-26T13:35:01.198Z,6.53
2017-07-26T13:37:29.600Z,6.50
2017-07-26T13:39:58.045Z,6.50
2017-07-26T13:42:26.475Z,6.13
2017-07-26T13:44:54.904Z,6.60
2017-07-26T13:47:23.410Z,6.77
2017-07-26T13:49:51.854Z,6.80
2017-07-26T13:52:21.058Z,5.57
2017-07-26T13:54:50.257Z,6.40
2017-07-26T13:57:18.678Z,5.20
2017-07-26T13:59:47.147Z,5.90
2017-07-26T14:02:15.563Z,5.40
2017-07-26T14:04:44.017Z,5.47
2017-07-26T14:07:12.436Z,5.80
2017-07-26T14:09:40.870Z,5.67
2017-07-26T14:12:09.335Z,6.00
2017-07-26T14:14:37.574Z,6.40
2017-07-26T14:17:06.078Z,5.50
2017-07-26T14:19:35.276Z,5.77
2017-07-26T14:22:04.453Z,6.40
2017-07-26T14:24:33.575Z,6.03
2017-07-26T14:27:02.773Z,5.27
2017-07-26T14:29:31.990Z,4.80
2017-07-26T14:32:00.427Z,5.00
2017-07-26T14:34:28.883Z,4.93
2017-07-26T14:36:57.323Z,5.87
2017-07-26T14:39:25.762Z,4.40
2017-07-26T14:41:54.185Z,4.30
2017-07-26T14:44:22.626Z,4.40
2017-07-26T14:46:51.051Z,3.50
2017-07-26T14:49:19.522Z,3.87
2017-07-26T14:51:48.711Z,3.70
2017-07-26T14:54:17.194Z,4.23
2017-07-26T14:56:46.401Z,3.40
2017-07-26T14:59:15.592Z,4.00
2017-07-26T15:01:44.034Z,3.87
2017-07-26T15:04:12.566Z,4.20
2017-07-26T15:06:41.763Z,4.03
2017-07-26T15:09:10.971Z,3.27
2017-07-26T15:11:40.183Z,3.40
2017-07-26T15:14:08.598Z,3.10
2017-07-26T15:16:37.046Z,3.00
2017-07-26T15:19:05.479Z,2.70
2017-07-26T15:21:33.890Z,3.23
2017-07-26T15:24:03.125Z,3.00
2017-07-26T15:26:31.546Z,3.50
2017-07-26T15:28:59.987Z,3.80
2017-07-26T15:31:28.456Z,3.67
2017-07-26T15:33:56.910Z,3.07
2017-07-26T15:36:26.259Z,3.20
2017-07-26T15:38:54.675Z,3.20
2017-07-26T15:41:23.112Z,2.67
2017-07-26T15:43:51.547Z,3.10
2017-07-26T15:46:19.980Z,2.70
2017-07-26T15:48:48.392Z,3.20
2017-07-26T15:51:16.809Z,3.13
2017-07-26T15:53:45.993Z,3.30
2017-07-26T15:56:15.203Z,3.30
2017-07-26T15:58:44.396Z,3.30
2017-07-26T16:01:13.600Z,2.97
2017-07-26T16:03:42.799Z,2.90
2017-07-26T16:06:12.014Z,2.87
2017-07-26T16:08:40.451Z,3.10
2017-07-26T16:11:08.877Z,2.87
2017-07-26T16:13:37.368Z,2.63
2017-07-26T16:16:06.470Z,3.00
2017-07-26T16:18:34.980Z,3.30
2017-07-26T16:21:03.421Z,2.80
2017-07-26T16:23:32.616Z,3.53
2017-07-26T16:26:01.050Z,3.20
2017-07-26T16:28:29.479Z,3.23
2017-07-26T16:30:58.691Z,2.80
2017-07-26T16:33:27.215Z,3.17
2017-07-26T16:35:55.739Z,3.73
2017-07-26T16:38:24.947Z,2.90
2017-07-26T16:40:53.407Z,2.97
2017-07-26T16:43:21.839Z,3.30
2017-07-26T16:45:50.255Z,3.50
2017-07-26T16:48:19.412Z,3.73
2017-07-26T16:50:47.859Z,3.20
2017-07-26T16:53:17.064Z,2.93
2017-07-26T16:55:45.498Z,2.97
2017-07-26T16:58:13.942Z,3.20
2017-07-26T17:00:42.442Z,3.63
2017-07-26T17:03:10.895Z,3.23
2017-07-26T17:05:39.359Z,3.40
2017-07-26T17:08:07.803Z,2.93
2017-07-26T17:10:36.235Z,3.50
2017-07-26T17:13:04.687Z,2.87
2017-07-26T17:15:33.161Z,2.30
2017-07-26T17:18:01.610Z,2.50
2017-07-26T17:20:30.068Z,3.00
2017-07-26T17:22:58.507Z,2.73
2017-07-26T17:25:26.933Z,2.80
2017-07-26T17:27:55.423Z,2.60
2017-07-26T17:30:23.936Z,2.70
2017-07-26T17:32:52.383Z,2.47
2017-07-26T17:35:21.516Z,2.43
2017-07-26T17:37:49.950Z,2.57
2017-07-26T17:40:18.400Z,3.30
2017-07-26T17:42:46.858Z,2.80
2017-07-26T17:45:15.271Z,2.87
2017-07-26T17:47:43.711Z,2.67
2017-07-26T17:50:12.139Z,2.70
2017-07-26T17:52:40.577Z,2.77
2017-07-26T17:55:09.012Z,2.50
2017-07-26T17:57:37.468Z,2.53
2017-07-26T18:00:05.914Z,2.80
2017-07-26T18:02:34.331Z,2.80
2017-07-26T18:05:03.466Z,2.80
2017-07-26T18:07:32.656Z,2.90
2017-07-26T18:10:01.880Z,3.50
2017-07-26T18:12:30.320Z,3.70
2017-07-26T18:14:58.763Z,3.57
2017-07-26T18:17:27.914Z,3.20
2017-07-26T18:19:57.120Z,3.87
2017-07-26T18:22:26.383Z,3.20
2017-07-26T18:24:54.815Z,3.73
2017-07-26T18:27:23.288Z,3.70
2017-07-26T18:29:52.468Z,4.17
2017-07-26T18:32:21.664Z,4.23
2017-07-26T18:34:50.168Z,3.43
2017-07-26T18:37:19.398Z,3.33
2017-07-26T18:39:47.831Z,3.33
2017-07-26T18:42:16.260Z,3.97
2017-07-26T18:44:44.718Z,3.13
2017-07-26T18:47:14.146Z,3.90
2017-07-26T18:49:42.583Z,3.80
2017-07-26T18:52:10.974Z,3.93
2017-07-26T18:54:40.169Z,3.83
2017-07-26T18:57:09.376Z,4.10
2017-07-26T18:59:37.824Z,3.63
2017-07-26T19:02:06.255Z,3.70
2017-07-26T19:04:36.156Z,4.50
2017-07-26T19:07:05.353Z,4.50
2017-07-26T19:09:33.776Z,4.23
2017-07-26T19:12:02.282Z,4.37
2017-07-26T19:14:30.731Z,3.93
2017-07-26T19:16:59.214Z,4.80
2017-07-26T19:19:29.130Z,3.93
2017-07-26T19:21:57.404Z,3.90
2017-07-26T19:24:25.854Z,4.47
2017-07-26T19:26:54.992Z,4.27
2017-07-26T19:29:24.915Z,4.63
2017-07-26T19:31:54.095Z,4.60
2017-07-26T19:34:22.507Z,4.37
2017-07-26T19:36:50.954Z,3.93
2017-07-26T19:39:19.408Z,4.53
2017-07-26T19:41:47.852Z,4.07
2017-07-26T19:44:16.325Z,4.03
2017-07-26T19:46:44.746Z,4.20
2017-07-26T19:49:13.213Z,4.63
2017-07-26T19:51:41.684Z,4.30
2017-07-26T19:54:10.144Z,4.40
2017-07-26T19:56:38.599Z,4.10
2017-07-26T19:59:07.075Z,4.60
2017-07-26T20:01:36.267Z,4.37
2017-07-26T20:04:05.499Z,4.73
2017-07-26T20:06:33.968Z,5.07
2017-07-26T20:09:02.383Z,4.83
2017-07-26T20:11:30.812Z,4.00
2017-07-26T20:13:59.664Z,4.57
2017-07-26T20:16:28.220Z,4.83
2017-07-26T20:18:56.667Z,5.23
2017-07-26T20:21:25.849Z,5.50
2017-07-26T20:23:54.291Z,6.00
2017-07-26T20:26:22.714Z,5.23
2017-07-26T20:28:51.267Z,5.60
2017-07-26T20:31:19.523Z,5.17
2017-07-26T20:33:48.071Z,5.57
2017-07-26T20:36:16.531Z,5.30
2017-07-26T20:38:44.987Z,5.20
2017-07-26T20:41:13.426Z,5.80
2017-07-26T20:43:41.894Z,5.00
2017-07-26T20:46:10.325Z,5.47
2017-07-26T20:48:38.759Z,5.50
2017-07-26T20:51:07.183Z,5.07
2017-07-26T20:53:35.605Z,5.70
2017-07-26T20:56:04.065Z,6.27
2017-07-26T20:58:32.506Z,5.57
2017-07-26T21:01:01.022Z,5.60
2017-07-26T21:03:29.443Z,5.70
2017-07-26T21:05:58.651Z,5.93
2017-07-26T21:08:27.844Z,5.57
2017-07-26T21:10:56.834Z,6.00
2017-07-26T21:13:26.112Z,6.00
2017-07-26T21:15:54.534Z,6.43
2017-07-26T21:18:22.962Z,5.40
2017-07-26T21:20:51.402Z,5.03
2017-07-26T21:23:19.907Z,5.97
2017-07-26T21:25:48.319Z,6.17
2017-07-26T21:28:16.944Z,6.00
2017-07-26T21:30:46.098Z,6.00
2017-07-26T21:33:14.931Z,6.33
2017-07-26T21:35:44.157Z,5.90
2017-07-26T21:38:12.581Z,5.90
2017-07-26T21:40:41.048Z,5.80
2017-07-26T21:43:09.471Z,5.80
2017-07-26T21:45:38.775Z,5.60
2017-07-26T21:48:07.964Z,5.37
2017-07-26T21:50:37.183Z,5.70
2017-07-26T21:53:05.638Z,5.77
2017-07-26T21:55:34.070Z,5.60
2017-07-26T21:58:02.514Z,5.90
2017-07-26T22:00:31.711Z,5.33
2017-07-26T22:03:00.932Z,6.10
2017-07-26T22:05:29.349Z,5.60
2017-07-26T22:07:57.784Z,5.57
2017-07-26T22:10:27.036Z,6.20
2017-07-26T22:12:55.456Z,5.83
2017-07-26T22:15:24.670Z,7.33
2017-07-26T22:17:53.102Z,5.17
2017-07-26T22:20:21.555Z,6.73
2017-07-26T22:22:50.003Z,6.30
2017-07-26T22:25:19.200Z,6.20
2017-07-26T22:27:48.410Z,6.23
2017-07-26T22:30:16.840Z,6.00
2017-07-26T22:32:45.283Z,6.10
2017-07-26T22:35:13.694Z,6.00
2017-07-26T22:37:42.130Z,6.13
2017-07-26T22:40:11.331Z,5.80
2017-07-26T22:42:40.519Z,6.40
2017-07-26T22:45:09.738Z,5.63
2017-07-26T22:47:38.191Z,4.97
2017-07-26T22:50:06.627Z,5.50
2017-07-26T22:52:35.056Z,6.00
2017-07-26T22:55:03.495Z,5.47
2017-07-26T22:57:31.917Z,6.83
2017-07-26T23:00:00.370Z,6.10
2017-07-26T23:02:28.829Z,6.00
2017-07-26T23:04:57.259Z,5.63
2017-07-26T23:07:25.704Z,6.00
2017-07-26T23:09:54.175Z,5.50
2017-07-26T23:12:22.627Z,6.13
2017-07-26T23:14:51.811Z,6.40
2017-07-26T23:17:21.060Z,5.97
2017-07-26T23:19:49.471Z,5.50
2017-07-26T23:22:17.904Z,6.23
2017-07-26T23:24:46.407Z,6.07
2017-07-26T23:27:14.830Z,5.83
2017-07-26T23:29:43.250Z,6.00
2017-07-26T23:32:11.694Z,6.10
2017-07-26T23:34:40.106Z,5.63
2017-07-26T23:37:08.629Z,6.07
2017-07-26T23:39:37.038Z,6.73
2017-07-26T23:42:05.471Z,6.33
2017-07-26T23:44:33.903Z,6.30
2017-07-26T23:47:03.091Z,6.23
2017-07-26T23:49:31.602Z,5.83
2017-07-26T23:52:00.799Z,6.80
2017-07-26T23:54:30.003Z,6.80
2017-07-26T23:56:58.445Z,6.07
2017-07-26T23:59:26.872Z,6.60
